Aviation Digital Data Service (ADDS)

Output produced by METARs form (0653 UTC 24 March 2019)
found at http://www.aviationweather.gov/metar/data/
 
TAF TUPJ 232300Z 2400/2424 13010KT 9999 SCT020 
     PROB30 
     TEMPO 2400/2418 SHRA